createdAt,value
2022-11-26T00:02:15.927Z,3.71
2022-11-26T00:04:45.314Z,3.76
2022-11-26T00:07:17.250Z,3.72
2022-11-26T00:09:45.722Z,3.71
2022-11-26T00:12:18.313Z,3.81
2022-11-26T00:14:47.511Z,3.82
2022-11-26T00:17:16.555Z,3.65
2022-11-26T00:19:47.073Z,3.59
2022-11-26T00:22:24.430Z,3.66
2022-11-26T00:24:52.747Z,3.63
2022-11-26T00:27:21.166Z,3.60
2022-11-26T00:29:49.011Z,3.59
2022-11-26T00:32:19.284Z,3.51
2022-11-26T00:34:48.766Z,3.59
2022-11-26T00:37:21.097Z,3.53
2022-11-26T00:39:49.586Z,3.51
2022-11-26T00:42:18.123Z,3.58
2022-11-26T00:44:46.254Z,3.55
2022-11-26T00:47:14.138Z,3.54
2022-11-26T00:49:42.015Z,3.59
2022-11-26T00:52:25.625Z,3.62
2022-11-26T00:54:53.564Z,3.40
2022-11-26T00:57:21.474Z,3.24
2022-11-26T00:59:49.543Z,3.12
2022-11-26T01:02:17.694Z,2.97
2022-11-26T01:04:45.687Z,2.83
2022-11-26T01:07:15.146Z,2.82
2022-11-26T01:09:45.400Z,2.67
2022-11-26T01:12:14.797Z,2.62
2022-11-26T01:14:42.853Z,2.59
2022-11-26T01:17:13.216Z,2.52
2022-11-26T01:19:41.258Z,2.42
2022-11-26T01:22:20.460Z,2.36
2022-11-26T01:24:48.522Z,2.29
2022-11-26T01:27:16.623Z,2.33
2022-11-26T01:29:44.541Z,2.37
2022-11-26T01:32:12.982Z,2.36
2022-11-26T01:34:40.968Z,2.28
2022-11-26T01:37:13.941Z,2.19
2022-11-26T01:39:43.274Z,2.11
2022-11-26T01:42:26.331Z,2.10
2022-11-26T01:44:54.496Z,2.15
2022-11-26T01:47:28.086Z,2.08
2022-11-26T01:50:47.499Z,2.23
2022-11-26T01:53:20.534Z,2.16
2022-11-26T01:55:54.291Z,2.13
2022-11-26T01:58:28.578Z,2.08
2022-11-26T02:00:56.967Z,2.05
2022-11-26T02:03:25.794Z,1.91
2022-11-26T02:05:59.791Z,1.91
2022-11-26T02:08:31.239Z,1.80
2022-11-26T02:11:00.500Z,1.82
2022-11-26T02:13:28.443Z,1.89
2022-11-26T02:16:04.860Z,1.93
2022-11-26T02:18:39.035Z,1.96
2022-11-26T02:21:11.120Z,1.96
2022-11-26T02:24:06.410Z,1.99
2022-11-26T02:27:01.619Z,1.98
2022-11-26T02:29:47.081Z,1.95
2022-11-26T02:32:21.997Z,2.00
2022-11-26T02:34:56.360Z,1.94
2022-11-26T02:37:29.023Z,2.03
2022-11-26T02:39:58.546Z,1.99
2022-11-26T02:42:28.155Z,2.01
2022-11-26T02:44:58.744Z,2.00
2022-11-26T02:47:29.815Z,1.94
2022-11-26T02:50:01.435Z,2.06
2022-11-26T02:52:30.831Z,2.08
2022-11-26T02:54:59.589Z,2.03
2022-11-26T02:57:31.403Z,2.14
2022-11-26T02:59:59.784Z,2.02
2022-11-26T03:02:35.384Z,2.08
2022-11-26T03:05:04.619Z,1.98
2022-11-26T03:07:35.321Z,1.92
2022-11-26T03:10:03.865Z,2.05
2022-11-26T03:12:31.764Z,2.00
2022-11-26T03:14:59.693Z,1.90
2022-11-26T03:17:28.977Z,2.02
2022-11-26T03:19:56.873Z,2.07
2022-11-26T03:22:25.146Z,2.03
2022-11-26T03:24:53.058Z,2.04
2022-11-26T03:27:20.960Z,1.92
2022-11-26T03:29:48.891Z,1.95
2022-11-26T03:32:16.904Z,1.91
2022-11-26T03:34:46.168Z,1.92
2022-11-26T03:37:14.787Z,1.84
2022-11-26T03:39:42.934Z,1.84
2022-11-26T03:42:11.002Z,1.88
2022-11-26T03:44:39.441Z,1.83
2022-11-26T03:47:07.544Z,1.63
2022-11-26T03:49:35.463Z,1.53
2022-11-26T03:52:04.811Z,1.49
2022-11-26T03:54:32.739Z,1.37
2022-11-26T03:57:00.741Z,1.51
2022-11-26T03:59:28.808Z,1.44
2022-11-26T04:01:58.207Z,1.43
2022-11-26T04:04:26.166Z,1.43
2022-11-26T04:06:54.099Z,1.35
2022-11-26T04:09:23.502Z,1.36
2022-11-26T04:11:51.530Z,1.36
2022-11-26T04:14:19.795Z,1.29
2022-11-26T04:16:47.897Z,1.37
2022-11-26T04:19:15.825Z,1.39
2022-11-26T04:21:43.690Z,1.39
2022-11-26T04:24:11.613Z,1.44
2022-11-26T04:26:40.880Z,1.37
2022-11-26T04:29:08.807Z,1.35
2022-11-26T04:31:36.757Z,1.32
2022-11-26T04:34:04.844Z,1.32
2022-11-26T04:36:32.898Z,1.36
2022-11-26T04:39:00.938Z,1.40
2022-11-26T04:41:28.891Z,1.43
2022-11-26T04:43:58.257Z,1.39
2022-11-26T04:46:26.239Z,1.50
2022-11-26T04:48:54.132Z,1.55
2022-11-26T04:51:22.094Z,1.62
2022-11-26T04:53:52.321Z,1.57
2022-11-26T04:56:22.555Z,1.59
2022-11-26T04:58:50.452Z,1.46
2022-11-26T05:01:19.794Z,1.40
2022-11-26T05:03:47.824Z,1.29
2022-11-26T05:06:16.192Z,1.11
2022-11-26T05:08:44.192Z,1.12
2022-11-26T05:11:12.120Z,1.04
2022-11-26T05:13:39.974Z,1.20
2022-11-26T05:16:08.509Z,1.25
2022-11-26T05:18:37.941Z,1.22
2022-11-26T05:21:06.392Z,1.12
2022-11-26T05:23:34.492Z,1.20
2022-11-26T05:26:02.466Z,1.11
2022-11-26T05:28:30.380Z,1.19
2022-11-26T05:31:02.748Z,0.96
2022-11-26T05:33:31.050Z,0.90
2022-11-26T05:36:00.466Z,0.85
2022-11-26T05:38:28.755Z,0.58
2022-11-26T05:40:56.828Z,0.62
2022-11-26T05:43:24.707Z,0.50
2022-11-26T05:45:52.744Z,0.48
2022-11-26T05:48:20.933Z,0.45
2022-11-26T05:50:54.276Z,0.52
2022-11-26T05:53:23.791Z,0.46
2022-11-26T05:55:51.760Z,0.51
2022-11-26T05:58:19.714Z,0.61
2022-11-26T06:00:47.747Z,0.64
2022-11-26T06:03:20.132Z,0.75
2022-11-26T06:05:48.749Z,0.60
2022-11-26T06:08:16.643Z,0.80
2022-11-26T06:10:46.164Z,0.85
2022-11-26T06:13:14.242Z,0.86
2022-11-26T06:15:42.521Z,0.82
2022-11-26T06:18:10.516Z,0.98
2022-11-26T06:20:39.653Z,1.11
2022-11-26T06:23:07.626Z,1.20
2022-11-26T06:25:35.567Z,1.16
2022-11-26T06:28:05.075Z,1.32
2022-11-26T06:30:33.047Z,1.22
2022-11-26T06:33:01.061Z,1.48
2022-11-26T06:35:29.032Z,1.55
2022-11-26T06:37:57.122Z,1.42
2022-11-26T06:40:25.118Z,1.39
2022-11-26T06:42:54.415Z,1.52
2022-11-26T06:45:24.947Z,1.46
2022-11-26T06:47:53.502Z,1.55
2022-11-26T06:50:24.201Z,1.60
2022-11-26T06:52:53.256Z,1.79
2022-11-26T06:55:21.604Z,1.92
2022-11-26T06:57:52.503Z,1.93
2022-11-26T07:00:22.078Z,2.13
2022-11-26T07:02:51.578Z,2.21
2022-11-26T07:05:21.907Z,2.41
2022-11-26T07:07:49.957Z,2.52
2022-11-26T07:10:18.269Z,2.65
2022-11-26T07:12:46.487Z,2.66
2022-11-26T07:15:15.172Z,2.72
2022-11-26T07:17:44.445Z,2.86
2022-11-26T07:20:15.386Z,2.73
2022-11-26T07:22:44.415Z,2.65
2022-11-26T07:25:13.115Z,2.78
2022-11-26T07:27:42.112Z,2.72
2022-11-26T07:30:11.453Z,2.66
2022-11-26T07:32:39.650Z,2.63
2022-11-26T07:35:09.340Z,2.76
2022-11-26T07:37:56.600Z,2.78
2022-11-26T07:40:25.791Z,2.91
2022-11-26T07:42:53.749Z,3.01
2022-11-26T07:45:21.966Z,3.24
2022-11-26T07:47:49.968Z,3.34
2022-11-26T07:50:18.166Z,3.22
2022-11-26T07:52:46.155Z,3.27
2022-11-26T07:55:15.651Z,3.08
2022-11-26T07:57:43.764Z,3.20
2022-11-26T08:00:13.763Z,3.26
2022-11-26T08:02:41.858Z,3.45
2022-11-26T08:05:10.235Z,3.26
2022-11-26T08:07:38.305Z,2.92
2022-11-26T08:10:07.675Z,2.93
2022-11-26T08:12:37.108Z,3.13
2022-11-26T08:15:06.360Z,3.20
2022-11-26T08:17:34.493Z,3.23
2022-11-26T08:20:03.182Z,3.42
2022-11-26T08:22:38.856Z,3.55
2022-11-26T08:25:08.045Z,3.81
2022-11-26T08:27:37.451Z,3.98
2022-11-26T08:30:06.906Z,3.93
2022-11-26T08:32:35.175Z,4.04
2022-11-26T08:35:03.144Z,4.08
2022-11-26T08:37:31.202Z,4.09
2022-11-26T08:40:00.370Z,3.96
2022-11-26T08:42:28.380Z,3.78
2022-11-26T08:44:59.073Z,3.81
2022-11-26T08:47:27.151Z,3.99
2022-11-26T08:49:58.515Z,4.09
2022-11-26T08:52:26.889Z,4.23
2022-11-26T08:54:54.963Z,4.25
2022-11-26T08:57:22.873Z,4.25
2022-11-26T08:59:52.082Z,4.32
2022-11-26T09:02:22.092Z,4.85
2022-11-26T09:04:50.160Z,4.72
2022-11-26T09:07:18.268Z,4.49
2022-11-26T09:09:46.587Z,4.79
2022-11-26T09:12:14.659Z,4.62
2022-11-26T09:14:43.819Z,4.28
2022-11-26T09:17:12.999Z,4.73
2022-11-26T09:19:42.994Z,4.53
2022-11-26T09:22:11.566Z,4.88
2022-11-26T09:24:42.113Z,5.08
2022-11-26T09:27:13.640Z,5.21
2022-11-26T09:29:41.999Z,5.48
2022-11-26T09:32:29.633Z,5.65
2022-11-26T09:34:59.770Z,5.60
2022-11-26T09:37:28.179Z,5.79
2022-11-26T09:39:56.244Z,6.12
2022-11-26T09:42:36.894Z,6.22
2022-11-26T09:45:14.695Z,6.50
2022-11-26T09:47:45.685Z,6.93
2022-11-26T09:50:26.569Z,7.33
2022-11-26T09:52:58.658Z,7.56
2022-11-26T09:55:29.729Z,7.84
2022-11-26T09:58:05.519Z,7.76
2022-11-26T10:00:36.318Z,7.95
2022-11-26T10:03:14.228Z,8.22
2022-11-26T10:05:54.605Z,8.38
2022-11-26T10:08:36.572Z,8.66
2022-11-26T10:11:11.856Z,8.77
2022-11-26T10:13:47.936Z,9.13
2022-11-26T10:16:25.294Z,9.01
2022-11-26T10:19:01.006Z,9.25
2022-11-26T10:21:58.230Z,9.26
2022-11-26T10:24:30.206Z,9.65
2022-11-26T10:27:01.086Z,9.95
2022-11-26T10:29:36.309Z,9.75
2022-11-26T10:32:15.078Z,9.62
2022-11-26T10:34:50.893Z,10.04
2022-11-26T10:37:21.784Z,9.89
2022-11-26T10:39:52.911Z,10.13
2022-11-26T10:42:25.622Z,9.72
2022-11-26T10:44:54.720Z,9.68
2022-11-26T10:47:28.644Z,9.82
2022-11-26T10:50:39.590Z,10.31
2022-11-26T10:53:08.599Z,10.61
2022-11-26T10:55:40.630Z,11.06
2022-11-26T10:58:16.868Z,10.96
2022-11-26T11:00:53.247Z,10.79
2022-11-26T11:03:44.621Z,11.01
2022-11-26T11:06:14.782Z,11.08
2022-11-26T11:08:44.187Z,11.20
2022-11-26T11:11:21.127Z,11.62
2022-11-26T11:13:49.725Z,11.70
2022-11-26T11:16:28.511Z,11.45
2022-11-26T11:18:59.446Z,11.45
2022-11-26T11:21:31.285Z,11.56
2022-11-26T11:24:15.993Z,11.67
2022-11-26T11:26:46.719Z,11.78
2022-11-26T11:29:34.566Z,11.78
2022-11-26T11:32:04.749Z,11.81
2022-11-26T11:34:38.578Z,11.87
2022-11-26T11:37:15.272Z,11.54
2022-11-26T11:39:45.472Z,11.91
2022-11-26T11:42:24.470Z,12.07
2022-11-26T11:44:53.817Z,12.32
2022-11-26T11:47:33.085Z,12.25
2022-11-26T11:50:18.958Z,12.37
2022-11-26T11:53:01.887Z,12.69
2022-11-26T11:55:47.424Z,13.11
2022-11-26T11:58:34.194Z,13.02
2022-11-26T12:01:09.381Z,12.61
2022-11-26T12:04:00.353Z,12.93
2022-11-26T12:06:40.032Z,12.88
2022-11-26T12:09:21.225Z,12.89
2022-11-26T12:12:00.671Z,12.94
2022-11-26T12:14:35.103Z,13.19
2022-11-26T12:17:08.324Z,13.03
2022-11-26T12:19:42.569Z,13.17
2022-11-26T12:22:19.077Z,13.25
2022-11-26T12:24:51.691Z,13.47
2022-11-26T12:27:31.816Z,13.44
2022-11-26T12:30:05.823Z,13.84
2022-11-26T12:32:41.743Z,13.74
2022-11-26T12:35:16.912Z,13.52
2022-11-26T12:37:46.738Z,13.77
2022-11-26T12:40:27.714Z,13.39
2022-11-26T12:43:02.782Z,13.25
2022-11-26T12:45:42.918Z,13.50
2022-11-26T12:48:30.138Z,13.72
2022-11-26T12:51:05.548Z,13.59
2022-11-26T12:53:40.275Z,14.03
2022-11-26T12:56:20.611Z,13.92
2022-11-26T12:58:57.929Z,13.57
2022-11-26T13:01:27.651Z,13.63
2022-11-26T13:04:14.715Z,13.71
2022-11-26T13:07:01.211Z,13.86
2022-11-26T13:09:42.932Z,13.73
2022-11-26T13:12:17.595Z,13.78
2022-11-26T13:14:54.279Z,13.99
2022-11-26T13:17:32.549Z,13.86
2022-11-26T13:20:18.685Z,13.85
2022-11-26T13:23:15.593Z,13.42
2022-11-26T13:25:58.452Z,13.61
2022-11-26T13:28:43.243Z,13.44
2022-11-26T13:31:33.564Z,13.60
2022-11-26T13:34:25.862Z,13.69
2022-11-26T13:37:20.775Z,13.64
2022-11-26T13:40:04.761Z,13.59
2022-11-26T13:43:24.655Z,13.66
2022-11-26T13:46:05.270Z,13.47
2022-11-26T13:48:42.917Z,13.00
2022-11-26T13:51:20.187Z,12.73
2022-11-26T13:53:54.111Z,12.75
2022-11-26T13:56:25.080Z,12.27
2022-11-26T13:59:01.831Z,11.93
2022-11-26T14:01:37.202Z,11.67
2022-11-26T14:04:09.121Z,11.84
2022-11-26T14:06:37.835Z,11.66
2022-11-26T14:09:08.775Z,11.74
2022-11-26T14:12:01.147Z,11.37
2022-11-26T14:14:37.648Z,10.92
2022-11-26T14:17:15.062Z,10.70
2022-11-26T14:20:12.911Z,10.52
2022-11-26T14:22:40.821Z,10.15
2022-11-26T14:25:12.167Z,10.01
2022-11-26T14:27:43.537Z,9.84
2022-11-26T14:30:28.694Z,9.58
2022-11-26T14:33:15.370Z,9.27
2022-11-26T14:35:55.427Z,9.07
2022-11-26T14:38:26.582Z,8.74
2022-11-26T14:41:00.538Z,8.60
2022-11-26T14:43:29.926Z,8.63
2022-11-26T14:46:06.315Z,8.52
2022-11-26T14:48:38.559Z,8.43
2022-11-26T14:51:09.545Z,8.28
2022-11-26T14:53:48.022Z,8.04
2022-11-26T14:56:17.776Z,8.09
2022-11-26T14:58:49.655Z,7.85
2022-11-26T15:01:23.752Z,7.76
2022-11-26T15:03:56.832Z,7.69
2022-11-26T15:06:28.872Z,7.51
2022-11-26T15:09:08.847Z,7.34
2022-11-26T15:11:39.101Z,7.15
2022-11-26T15:14:07.272Z,7.15
2022-11-26T15:16:38.141Z,7.13
2022-11-26T15:19:07.963Z,7.20
2022-11-26T15:21:37.776Z,7.00
2022-11-26T15:24:10.130Z,6.76
2022-11-26T15:26:39.840Z,6.84
2022-11-26T15:29:30.495Z,6.79
2022-11-26T15:31:58.968Z,6.63
2022-11-26T15:34:29.338Z,6.66
2022-11-26T15:36:58.807Z,6.48
2022-11-26T15:39:29.828Z,6.47
2022-11-26T15:42:02.867Z,6.46
2022-11-26T15:44:37.689Z,6.27
2022-11-26T15:47:18.122Z,6.22
2022-11-26T15:49:52.103Z,6.16
2022-11-26T15:52:25.273Z,6.09
2022-11-26T15:55:16.800Z,6.07
2022-11-26T15:57:45.729Z,6.03
2022-11-26T16:00:23.266Z,6.09
2022-11-26T16:02:52.270Z,6.11
2022-11-26T16:05:32.550Z,6.14
2022-11-26T16:08:04.052Z,5.99
2022-11-26T16:10:36.023Z,5.80
2022-11-26T16:13:29.757Z,5.81
2022-11-26T16:16:01.068Z,5.60
2022-11-26T16:18:37.845Z,5.69
2022-11-26T16:21:09.859Z,5.68
2022-11-26T16:23:42.317Z,5.81
2022-11-26T16:26:16.504Z,5.72
2022-11-26T16:28:46.181Z,5.77
2022-11-26T16:31:15.628Z,5.71
2022-11-26T16:33:44.472Z,5.68
2022-11-26T16:36:20.359Z,5.53
2022-11-26T16:38:50.834Z,5.53
2022-11-26T16:41:20.697Z,5.56
2022-11-26T16:43:49.703Z,5.50
2022-11-26T16:46:21.146Z,5.45
2022-11-26T16:48:49.850Z,5.57
2022-11-26T16:51:19.525Z,5.54
2022-11-26T16:53:49.779Z,5.56
2022-11-26T16:56:22.733Z,5.44
2022-11-26T16:58:59.336Z,5.60
2022-11-26T17:01:27.416Z,5.52
2022-11-26T17:03:55.689Z,5.51
2022-11-26T17:06:27.511Z,5.11
2022-11-26T17:08:58.571Z,5.11
2022-11-26T17:11:26.793Z,5.17
2022-11-26T17:13:55.096Z,5.13
2022-11-26T17:16:26.387Z,5.01
2022-11-26T17:18:54.727Z,4.98
2022-11-26T17:21:23.743Z,4.97
2022-11-26T17:23:52.121Z,4.99
2022-11-26T17:26:23.813Z,4.80
2022-11-26T17:28:53.041Z,4.67
2022-11-26T17:31:21.091Z,4.69
2022-11-26T17:33:50.874Z,4.51
2022-11-26T17:36:21.223Z,4.49
2022-11-26T17:38:53.345Z,4.51
2022-11-26T17:41:23.258Z,4.41
2022-11-26T17:43:51.435Z,4.47
2022-11-26T17:46:22.131Z,4.49
2022-11-26T17:48:56.917Z,4.34
2022-11-26T17:51:27.738Z,4.25
2022-11-26T17:53:56.174Z,4.07
2022-11-26T17:56:27.356Z,4.00
2022-11-26T17:58:56.028Z,3.79
2022-11-26T18:01:24.485Z,3.81
2022-11-26T18:03:53.428Z,3.76
2022-11-26T18:06:33.627Z,3.56
2022-11-26T18:09:01.980Z,3.60
2022-11-26T18:11:44.544Z,3.54
2022-11-26T18:14:13.469Z,3.48
2022-11-26T18:16:41.601Z,3.52
2022-11-26T18:19:10.818Z,3.40
2022-11-26T18:21:39.745Z,3.34
2022-11-26T18:24:09.364Z,3.22
2022-11-26T18:26:39.048Z,3.27
2022-11-26T18:29:08.878Z,3.40
2022-11-26T18:31:39.708Z,3.45
2022-11-26T18:34:08.629Z,3.47
2022-11-26T18:36:36.820Z,3.39
2022-11-26T18:39:06.206Z,3.42
2022-11-26T18:41:35.102Z,3.30
2022-11-26T18:44:04.638Z,3.53
2022-11-26T18:46:34.325Z,3.57
2022-11-26T18:49:02.485Z,3.50
2022-11-26T18:51:31.391Z,3.53
2022-11-26T18:53:59.404Z,3.55
2022-11-26T18:56:27.417Z,3.58
2022-11-26T18:58:55.443Z,3.45
2022-11-26T19:01:26.024Z,3.53
2022-11-26T19:03:56.088Z,3.63
2022-11-26T19:06:26.026Z,3.56
2022-11-26T19:08:58.823Z,3.56
2022-11-26T19:11:27.902Z,3.57
2022-11-26T19:13:59.432Z,3.59
2022-11-26T19:16:29.543Z,3.63
2022-11-26T19:19:01.892Z,3.70
2022-11-26T19:21:33.014Z,3.78
2022-11-26T19:24:03.875Z,3.71
2022-11-26T19:26:32.544Z,3.68
2022-11-26T19:29:05.032Z,3.52
2022-11-26T19:31:36.011Z,3.65
2022-11-26T19:34:07.641Z,3.65
2022-11-26T19:36:36.017Z,3.50
2022-11-26T19:39:04.901Z,3.49
2022-11-26T19:41:33.579Z,3.48
2022-11-26T19:44:04.370Z,3.54
2022-11-26T19:46:32.586Z,3.51
2022-11-26T19:49:00.628Z,3.66
2022-11-26T19:51:30.067Z,3.70
2022-11-26T19:53:58.336Z,3.69
2022-11-26T19:56:28.051Z,3.56
2022-11-26T19:58:58.829Z,3.45
2022-11-26T20:01:30.459Z,3.42
2022-11-26T20:04:00.819Z,3.38
2022-11-26T20:06:31.603Z,3.29
2022-11-26T20:09:00.607Z,3.15
2022-11-26T20:11:29.780Z,3.23
2022-11-26T20:13:58.629Z,3.25
2022-11-26T20:16:28.401Z,3.28
2022-11-26T20:18:57.321Z,3.27
2022-11-26T20:21:26.960Z,3.25
2022-11-26T20:24:00.795Z,3.25
2022-11-26T20:26:31.941Z,3.24
2022-11-26T20:29:02.692Z,3.10
2022-11-26T20:31:31.461Z,3.13
2022-11-26T20:34:02.124Z,3.13
2022-11-26T20:36:30.398Z,3.34
2022-11-26T20:39:01.911Z,3.19
2022-11-26T20:41:30.495Z,3.35
2022-11-26T20:43:59.806Z,3.45
2022-11-26T20:46:29.003Z,3.44
2022-11-26T20:48:58.867Z,3.43
2022-11-26T20:51:27.311Z,3.55
2022-11-26T20:54:01.268Z,3.50
2022-11-26T20:56:32.108Z,3.52
2022-11-26T20:59:00.667Z,3.56
2022-11-26T21:01:31.675Z,3.54
2022-11-26T21:04:01.731Z,3.56
2022-11-26T21:06:31.558Z,3.46
2022-11-26T21:09:05.019Z,3.51
2022-11-26T21:11:36.127Z,3.42
2022-11-26T21:14:04.610Z,3.35
2022-11-26T21:16:34.523Z,3.26
2022-11-26T21:19:03.520Z,3.08
2022-11-26T21:21:31.931Z,2.98
2022-11-26T21:24:04.984Z,3.04
2022-11-26T21:26:33.292Z,3.00
2022-11-26T21:29:03.599Z,2.98
2022-11-26T21:31:33.064Z,2.89
2022-11-26T21:34:03.605Z,3.00
2022-11-26T21:36:33.360Z,2.93
2022-11-26T21:39:03.384Z,2.88
2022-11-26T21:41:33.657Z,2.93
2022-11-26T21:44:04.231Z,2.89
2022-11-26T21:46:37.927Z,2.85
2022-11-26T21:49:07.830Z,2.78
2022-11-26T21:51:36.333Z,2.96
2022-11-26T21:54:08.214Z,3.00
2022-11-26T21:56:36.982Z,3.03
2022-11-26T21:59:05.645Z,2.97
2022-11-26T22:01:36.094Z,2.99
2022-11-26T22:04:07.695Z,2.99
2022-11-26T22:06:36.960Z,2.90
2022-11-26T22:09:07.975Z,2.82
2022-11-26T22:11:38.442Z,2.67
2022-11-26T22:14:07.366Z,2.54
2022-11-26T22:16:36.440Z,2.47
2022-11-26T22:19:06.097Z,2.48
2022-11-26T22:21:36.511Z,2.34
2022-11-26T22:24:07.073Z,2.20
2022-11-26T22:26:35.717Z,2.05
2022-11-26T22:29:04.764Z,2.08
2022-11-26T22:31:35.601Z,1.88
2022-11-26T22:34:06.558Z,1.76
2022-11-26T22:36:35.384Z,1.63
2022-11-26T22:39:05.388Z,1.69
2022-11-26T22:41:34.895Z,1.66
2022-11-26T22:44:03.589Z,1.50
2022-11-26T22:46:34.306Z,1.46
2022-11-26T22:49:03.759Z,1.36
2022-11-26T22:51:34.351Z,1.42
2022-11-26T22:54:21.797Z,1.27
2022-11-26T22:56:51.183Z,1.24
2022-11-26T22:59:19.158Z,1.29
2022-11-26T23:01:47.225Z,1.27
2022-11-26T23:04:15.341Z,1.21
2022-11-26T23:06:43.263Z,1.07
2022-11-26T23:09:13.469Z,1.03
2022-11-26T23:11:43.317Z,1.08
2022-11-26T23:14:13.111Z,1.18
2022-11-26T23:16:42.980Z,1.13
2022-11-26T23:19:13.789Z,1.22
2022-11-26T23:21:42.952Z,1.21
2022-11-26T23:24:11.534Z,1.11
2022-11-26T23:26:40.569Z,1.01
2022-11-26T23:29:09.647Z,1.01
2022-11-26T23:31:41.419Z,1.09
2022-11-26T23:34:10.832Z,1.14
2022-11-26T23:36:39.605Z,1.07
2022-11-26T23:39:10.621Z,0.97
2022-11-26T23:41:38.728Z,0.84
2022-11-26T23:44:06.699Z,0.94
2022-11-26T23:46:36.541Z,0.92
2022-11-26T23:49:06.265Z,0.97
2022-11-26T23:51:34.855Z,1.03
2022-11-26T23:54:02.881Z,1.01
2022-11-26T23:56:33.315Z,0.98
2022-11-26T23:59:04.024Z,1.10
